Time;durP1;ratioP1;P1;durP2;ratioP2;P2;SDS_P1;SDS_P2;PMS_P1;PMS_P2;Temp;Humidity;BMP_temperature;BMP_pressure;BME280_temperature;BME280_humidity;BME280_pressure;Samples;Min_cycle;Max_cycle;Signal;HPM_P1;HPM_P2
2022/05/13 00:01:10;;;;;;;1.17;0.80;;;21.30;45.70;;;;;;4949173;28;20043;-62
2022/05/13 00:03:36;;;;;;;2.45;0.73;;;21.30;45.70;;;;;;4949447;29;20051;-61
2022/05/13 00:06:02;;;;;;;1.05;0.52;;;21.30;45.60;;;;;;4948541;28;20039;-62
2022/05/13 00:08:28;;;;;;;0.98;0.65;;;21.30;45.60;;;;;;4948881;28;20043;-61
2022/05/13 00:10:54;;;;;;;2.58;0.80;;;21.30;45.60;;;;;;4949687;28;20530;-62
2022/05/13 00:13:20;;;;;;;0.93;0.70;;;21.30;45.60;;;;;;4948759;28;20118;-61
2022/05/13 00:15:46;;;;;;;2.25;1.05;;;21.30;45.60;;;;;;4948970;28;20780;-61
2022/05/13 00:18:13;;;;;;;1.75;0.68;;;21.30;45.50;;;;;;4963656;28;20039;-61
2022/05/13 00:20:39;;;;;;;2.13;0.90;;;21.30;45.50;;;;;;4947278;29;20492;-62
2022/05/13 00:23:04;;;;;;;0.98;0.70;;;21.30;45.50;;;;;;4948398;29;20055;-62
2022/05/13 00:25:33;;;;;;;1.23;0.80;;;21.30;45.40;;;;;;4955744;28;20054;-61
2022/05/13 00:28:00;;;;;;;2.10;0.70;;;21.30;45.40;;;;;;4948294;29;20047;-62
2022/05/13 00:30:28;;;;;;;1.27;0.63;;;21.30;45.40;;;;;;4949172;28;20411;-62
2022/05/13 00:32:54;;;;;;;0.98;0.77;;;21.20;45.30;;;;;;4946578;29;20094;-61
2022/05/13 00:35:22;;;;;;;0.80;0.50;;;21.30;45.40;;;;;;4946406;29;20052;-62
2022/05/13 00:37:47;;;;;;;1.30;0.60;;;21.20;45.30;;;;;;4964124;28;20627;-61
2022/05/13 00:40:15;;;;;;;1.90;0.90;;;21.30;45.30;;;;;;4947060;29;20129;-62
2022/05/13 00:42:41;;;;;;;1.58;1.05;;;21.30;45.30;;;;;;4948365;29;20136;-61
2022/05/13 00:45:07;;;;;;;1.75;0.98;;;21.20;45.20;;;;;;4946798;29;20612;-61
2022/05/13 00:47:33;;;;;;;0.85;0.70;;;21.20;45.20;;;;;;4950271;28;20444;-61
2022/05/13 00:50:00;;;;;;;1.08;0.63;;;21.20;45.20;;;;;;4952547;28;20051;-62
2022/05/13 00:52:27;;;;;;;0.90;0.68;;;21.30;45.20;;;;;;4947037;29;20035;-61
2022/05/13 00:54:54;;;;;;;1.33;0.70;;;21.20;45.10;;;;;;4946443;28;20117;-62
2022/05/13 00:57:21;;;;;;;3.65;1.05;;;21.20;45.10;;;;;;4949022;28;20095;-62
2022/05/13 00:59:49;;;;;;;1.42;0.60;;;21.20;45.00;;;;;;4948119;29;20125;-62
2022/05/13 01:02:16;;;;;;;0.73;0.60;;;21.20;45.00;;;;;;4948711;29;20059;-62
2022/05/13 01:04:43;;;;;;;0.90;0.47;;;21.20;45.00;;;;;;4947800;29;20040;-61
2022/05/13 01:07:12;;;;;;;1.08;0.60;;;21.20;45.00;;;;;;4949352;28;20538;-62
2022/05/13 01:09:44;;;;;;;2.25;0.75;;;21.20;44.90;;;;;;4948318;29;20050;-61
2022/05/13 01:12:20;;;;;;;1.55;0.80;;;21.20;44.90;;;;;;4947187;28;20046;-61
2022/05/13 01:14:51;;;;;;;1.40;0.70;;;21.20;44.90;;;;;;4947795;29;20119;-61
2022/05/13 01:20:06;;;;;;;1.65;0.80;;;21.20;44.80;;;;;;4947311;29;19929;-62
2022/05/13 01:22:42;;;;;;;1.63;0.88;;;21.20;45.00;;;;;;4946994;29;20616;-62
2022/05/13 01:25:09;;;;;;;1.50;1.00;;;21.10;45.60;;;;;;4948147;28;20043;-61
2022/05/13 01:27:35;;;;;;;1.48;0.70;;;21.20;44.90;;;;;;4948025;29;20121;-61
2022/05/13 01:30:00;;;;;;;2.55;1.00;;;21.20;44.80;;;;;;4946743;28;20039;-62
2022/05/13 01:32:26;;;;;;;1.88;0.60;;;21.10;44.80;;;;;;4946738;29;20325;-62
2022/05/13 01:34:51;;;;;;;1.60;0.98;;;21.10;44.80;;;;;;4947927;28;20062;-61
2022/05/13 01:37:17;;;;;;;1.58;0.88;;;21.20;44.80;;;;;;4944982;28;20525;-62
2022/05/13 01:39:42;;;;;;;1.63;0.73;;;21.10;44.70;;;;;;4947594;28;20254;-61
2022/05/13 01:42:08;;;;;;;1.10;0.60;;;21.20;44.70;;;;;;4945328;29;20059;-62
2022/05/13 01:44:34;;;;;;;2.03;0.70;;;21.10;44.70;;;;;;4945808;29;20051;-62
2022/05/13 01:46:59;;;;;;;1.77;0.93;;;21.10;44.70;;;;;;4947331;29;20381;-61
2022/05/13 01:49:25;;;;;;;1.50;0.80;;;21.10;44.60;;;;;;4947406;28;20513;-61
2022/05/13 01:51:50;;;;;;;1.42;0.65;;;21.10;44.70;;;;;;4948078;28;20051;-61
2022/05/13 01:54:16;;;;;;;1.77;0.85;;;21.10;44.60;;;;;;4947376;28;20035;-61
2022/05/13 01:56:41;;;;;;;2.08;1.00;;;21.20;44.70;;;;;;4946653;29;20471;-62
2022/05/13 01:59:07;;;;;;;1.80;0.70;;;21.10;44.60;;;;;;4946885;28;20047;-62
2022/05/13 02:01:33;;;;;;;1.92;0.75;;;21.10;44.60;;;;;;4942600;28;20044;-62
2022/05/13 02:03:58;;;;;;;1.20;0.60;;;21.20;44.60;;;;;;4940359;29;20039;-61
2022/05/13 02:06:26;;;;;;;1.85;0.60;;;21.10;44.50;;;;;;4943367;29;20043;-61
2022/05/13 02:08:54;;;;;;;2.13;0.90;;;21.10;44.60;;;;;;4945970;28;20541;-62
2022/05/13 02:11:22;;;;;;;1.60;0.80;;;21.10;44.50;;;;;;4946716;29;20046;-61
2022/05/13 02:13:49;;;;;;;2.05;0.95;;;21.10;44.60;;;;;;4946508;28;20050;-62
2022/05/13 02:16:15;;;;;;;2.25;0.80;;;21.10;44.50;;;;;;4947508;29;20125;-61
2022/05/13 02:18:41;;;;;;;1.38;0.80;;;21.10;44.50;;;;;;4944747;28;20046;-61
2022/05/13 02:21:08;;;;;;;1.65;0.80;;;21.10;44.50;;;;;;4946325;28;20050;-61
2022/05/13 02:23:34;;;;;;;1.98;0.80;;;21.10;44.50;;;;;;4946456;28;20375;-61
2022/05/13 02:26:03;;;;;;;1.38;0.70;;;21.10;44.50;;;;;;4946739;29;20480;-61
2022/05/13 02:28:30;;;;;;;1.58;0.70;;;21.10;44.50;;;;;;4945234;28;20137;-61
2022/05/13 02:30:56;;;;;;;1.10;0.80;;;21.10;44.50;;;;;;4947840;28;20463;-61
2022/05/13 02:33:22;;;;;;;2.28;0.73;;;21.10;44.50;;;;;;4946285;29;20050;-61
2022/05/13 02:35:47;;;;;;;2.00;0.80;;;21.10;44.50;;;;;;4945804;29;20412;-63
2022/05/13 02:38:15;;;;;;;1.00;0.70;;;21.10;44.50;;;;;;4945837;28;20656;-63
2022/05/13 02:43:25;;;;;;;0.93;0.70;;;21.10;45.20;;;;;;4946471;29;20051;-62
2022/05/13 02:45:52;;;;;;;1.80;0.93;;;21.10;44.50;;;;;;4947318;28;20035;-61
2022/05/13 02:48:18;;;;;;;1.35;1.00;;;21.10;44.50;;;;;;4945376;29;20039;-62
2022/05/13 02:50:44;;;;;;;1.23;0.85;;;21.10;44.50;;;;;;4947411;28;20039;-61
2022/05/13 02:53:09;;;;;;;2.80;0.98;;;21.10;44.50;;;;;;4945705;28;20527;-63
2022/05/13 02:55:35;;;;;;;2.45;0.90;;;21.10;44.50;;;;;;4947742;28;20170;-62
2022/05/13 02:58:00;;;;;;;2.28;0.80;;;21.10;44.50;;;;;;4947392;28;20411;-62
2022/05/13 03:00:26;;;;;;;1.85;0.95;;;21.10;44.50;;;;;;4945489;28;20390;-62
2022/05/13 03:02:51;;;;;;;2.70;1.00;;;21.10;44.50;;;;;;4947202;28;20039;-62
2022/05/13 03:05:17;;;;;;;1.35;0.70;;;21.10;44.50;;;;;;4947196;29;20086;-61
2022/05/13 03:07:43;;;;;;;1.30;0.65;;;21.10;44.60;;;;;;4946113;29;20688;-63
2022/05/13 03:10:08;;;;;;;1.25;0.80;;;21.10;44.50;;;;;;4945332;28;20046;-62
2022/05/13 03:12:35;;;;;;;1.55;0.80;;;21.10;44.60;;;;;;4947705;28;20092;-62
2022/05/13 03:15:01;;;;;;;2.10;0.90;;;21.10;44.60;;;;;;4947092;28;20667;-61
2022/05/13 03:17:28;;;;;;;2.03;0.75;;;21.10;44.60;;;;;;4946378;28;20039;-62
2022/05/13 03:19:54;;;;;;;1.27;0.70;;;21.00;44.50;;;;;;4946274;29;20098;-62
2022/05/13 03:22:20;;;;;;;1.85;0.80;;;21.00;44.50;;;;;;4947189;28;20054;-61
2022/05/13 03:24:45;;;;;;;1.58;0.93;;;21.10;44.60;;;;;;4946327;28;20047;-62
2022/05/13 03:27:11;;;;;;;1.90;0.90;;;21.00;44.50;;;;;;4947150;29;20073;-62
2022/05/13 03:29:36;;;;;;;1.13;0.60;;;21.00;44.50;;;;;;4945913;28;20058;-61
2022/05/13 03:32:06;;;;;;;3.03;0.98;;;21.10;44.60;;;;;;4946136;28;20039;-61
2022/05/13 03:34:31;;;;;;;3.73;1.10;;;21.00;44.50;;;;;;4944963;28;20043;-62
2022/05/13 03:36:57;;;;;;;1.42;0.75;;;21.00;44.50;;;;;;4949587;28;20054;-62
2022/05/13 03:39:23;;;;;;;2.50;0.93;;;21.10;44.60;;;;;;4949203;28;20039;-62
2022/05/13 03:41:49;;;;;;;3.47;0.93;;;21.00;44.50;;;;;;4950381;28;20074;-61
2022/05/13 03:44:15;;;;;;;1.33;0.63;;;21.00;44.50;;;;;;4949113;28;20043;-62
2022/05/13 03:46:40;;;;;;;1.45;0.80;;;21.00;44.60;;;;;;4947884;29;20046;-61
2022/05/13 03:49:06;;;;;;;1.92;1.00;;;21.00;44.50;;;;;;4948353;28;20039;-62
2022/05/13 03:51:32;;;;;;;1.40;0.82;;;21.00;44.50;;;;;;4948986;28;20494;-61
2022/05/13 03:53:58;;;;;;;2.00;0.82;;;21.00;44.50;;;;;;4949285;28;20094;-61
2022/05/13 03:56:24;;;;;;;2.75;0.80;;;21.00;44.60;;;;;;4949481;28;20042;-62
2022/05/13 03:58:50;;;;;;;2.10;1.05;;;21.00;44.60;;;;;;4948155;29;20393;-61
2022/05/13 04:01:16;;;;;;;2.13;0.88;;;21.00;44.50;;;;;;4946752;28;20046;-62
2022/05/13 04:03:42;;;;;;;1.65;0.90;;;21.00;44.50;;;;;;4945561;29;20039;-61
2022/05/13 04:08:57;;;;;;;2.20;0.90;;;21.00;44.60;;;;;;4946620;29;20043;-62
2022/05/13 04:11:38;;;;;;;2.75;0.88;;;21.00;44.60;;;;;;4948730;29;20035;-61
2022/05/13 04:16:50;;;;;;;2.65;0.85;;;21.00;44.70;;;;;;4948989;28;20054;-61
2022/05/13 04:19:16;;;;;;;2.05;0.90;;;21.00;44.70;;;;;;4947951;28;20051;-61
2022/05/13 04:21:44;;;;;;;3.22;1.10;;;20.90;44.70;;;;;;4947884;28;20043;-61
2022/05/13 04:24:14;;;;;;;3.40;1.27;;;21.00;44.70;;;;;;4947489;28;20387;-61
2022/05/13 04:26:39;;;;;;;3.85;1.13;;;21.00;44.80;;;;;;4948049;28;20054;-62
2022/05/13 04:29:06;;;;;;;2.25;0.98;;;20.90;44.70;;;;;;4949820;29;20035;-61
2022/05/13 04:31:35;;;;;;;2.50;0.90;;;21.00;44.80;;;;;;4941773;28;20447;-60
2022/05/13 04:34:01;;;;;;;3.42;1.10;;;21.00;44.80;;;;;;4946857;29;20134;-61
2022/05/13 04:36:27;;;;;;;2.47;0.95;;;20.90;44.80;;;;;;4946820;28;20145;-61
2022/05/13 04:38:54;;;;;;;2.53;1.10;;;20.90;44.90;;;;;;4941241;28;20070;-61
2022/05/13 04:44:07;;;;;;;5.00;1.45;;;20.90;45.10;;;;;;4947495;28;20097;-61
2022/05/13 04:46:33;;;;;;;3.47;1.13;;;20.90;45.20;;;;;;4946578;28;20882;-60
2022/05/13 04:49:00;;;;;;;8.43;1.77;;;20.90;45.20;;;;;;4947210;28;20047;-60
2022/05/13 04:51:26;;;;;;;3.80;1.35;;;20.90;45.20;;;;;;4946023;28;20039;-60
2022/05/13 04:53:53;;;;;;;7.97;1.73;;;20.90;46.00;;;;;;4940972;28;20130;-61
2022/05/13 04:56:20;;;;;;;4.32;1.40;;;20.90;45.10;;;;;;4943707;28;20391;-61
2022/05/13 04:58:47;;;;;;;5.07;1.50;;;20.90;45.20;;;;;;4945099;29;20043;-61
2022/05/13 05:01:14;;;;;;;5.93;1.75;;;20.90;45.30;;;;;;4942288;28;20067;-62
2022/05/13 05:03:40;;;;;;;6.05;1.88;;;20.90;45.40;;;;;;4945991;29;20049;-61
2022/05/13 05:06:07;;;;;;;5.93;1.63;;;20.90;45.40;;;;;;4946678;28;20142;-63
2022/05/13 05:08:33;;;;;;;6.15;1.52;;;20.90;45.50;;;;;;4946584;28;20550;-61
2022/05/13 05:10:59;;;;;;;8.70;1.83;;;20.90;45.70;;;;;;4946287;28;20040;-61
2022/05/13 05:13:29;;;;;;;5.30;1.80;;;20.90;45.70;;;;;;4946626;28;20078;-60
2022/05/13 05:15:55;;;;;;;6.22;2.08;;;20.90;45.70;;;;;;4947953;28;20050;-60
2022/05/13 05:18:21;;;;;;;11.98;2.08;;;20.90;45.70;;;;;;4947340;29;20082;-60
2022/05/13 05:20:48;;;;;;;4.63;1.95;;;20.90;45.70;;;;;;4947510;28;20125;-61
2022/05/13 05:23:15;;;;;;;7.28;2.05;;;20.90;45.70;;;;;;4947812;28;20043;-62
2022/05/13 05:25:42;;;;;;;6.82;2.40;;;20.90;45.80;;;;;;4961172;28;20608;-60
2022/05/13 05:28:08;;;;;;;5.90;2.53;;;20.90;46.00;;;;;;4947087;29;20126;-61
2022/05/13 05:30:33;;;;;;;6.53;2.33;;;20.90;46.00;;;;;;4946740;29;20126;-60
2022/05/13 05:32:59;;;;;;;7.72;2.80;;;20.90;46.10;;;;;;4945944;28;20059;-61
2022/05/13 05:35:24;;;;;;;6.25;2.15;;;20.80;46.20;;;;;;4946790;29;20567;-60
2022/05/13 05:37:50;;;;;;;5.78;1.98;;;20.80;46.30;;;;;;4945838;29;20066;-63
2022/05/13 05:40:16;;;;;;;8.82;2.53;;;20.80;46.40;;;;;;4948387;28;20047;-63
2022/05/13 05:42:42;;;;;;;7.43;2.30;;;20.90;46.40;;;;;;4948172;28;20054;-64
2022/05/13 05:45:11;;;;;;;7.35;2.10;;;20.90;46.40;;;;;;4947563;29;20044;-63
2022/05/13 05:47:36;;;;;;;5.80;2.33;;;20.80;46.30;;;;;;4945670;29;20047;-61
2022/05/13 05:50:05;;;;;;;6.03;1.77;;;20.80;46.40;;;;;;4947100;28;20504;-61
2022/05/13 05:52:30;;;;;;;7.45;2.08;;;20.90;46.40;;;;;;4948540;28;20035;-62
2022/05/13 05:57:40;;;;;;;11.43;2.33;;;20.90;46.30;;;;;;4946912;28;20075;-61
2022/05/13 06:00:07;;;;;;;7.05;2.05;;;20.90;46.40;;;;;;4945242;28;20047;-61
2022/05/13 06:02:33;;;;;;;7.55;1.83;;;20.90;46.50;;;;;;4944722;29;20049;-62
2022/05/13 06:04:59;;;;;;;6.43;1.80;;;20.90;46.70;;;;;;4947202;29;20039;-62
2022/05/13 06:07:26;;;;;;;5.10;1.98;;;20.90;46.90;;;;;;4945913;28;20094;-62
2022/05/13 06:09:52;;;;;;;6.20;1.58;;;20.90;47.00;;;;;;4945892;29;20051;-61
2022/05/13 06:12:18;;;;;;;6.45;1.95;;;20.90;46.80;;;;;;4947155;29;20043;-62
2022/05/13 06:14:44;;;;;;;4.13;1.63;;;20.90;46.90;;;;;;4946529;28;20036;-62
2022/05/13 06:17:09;;;;;;;5.30;1.90;;;21.00;47.00;;;;;;4946725;28;20102;-61
2022/05/13 06:19:35;;;;;;;6.75;2.10;;;21.00;47.00;;;;;;4945001;28;20050;-61
2022/05/13 06:22:01;;;;;;;5.57;1.65;;;20.90;46.90;;;;;;4947574;29;20500;-61
2022/05/13 06:24:26;;;;;;;4.80;1.98;;;21.00;47.00;;;;;;4947061;29;20697;-61
2022/05/13 06:26:52;;;;;;;5.25;1.60;;;21.00;47.10;;;;;;4948134;29;20812;-61
2022/05/13 06:29:21;;;;;;;7.28;1.40;;;21.00;46.90;;;;;;4945712;28;20395;-61
2022/05/13 06:31:47;;;;;;;6.15;2.08;;;21.00;46.90;;;;;;4943724;28;20046;-62
2022/05/13 06:34:14;;;;;;;5.20;1.90;;;21.00;47.00;;;;;;4946817;29;20050;-61
2022/05/13 06:36:40;;;;;;;6.75;2.00;;;21.00;47.10;;;;;;4945489;28;20090;-61
2022/05/13 06:39:07;;;;;;;4.75;2.10;;;21.00;47.00;;;;;;4944470;29;20083;-62
2022/05/13 06:41:37;;;;;;;4.47;1.80;;;21.00;46.90;;;;;;4943600;29;20575;-62
2022/05/13 06:44:05;;;;;;;4.25;1.40;;;21.00;46.90;;;;;;4942970;29;20051;-62
2022/05/13 06:46:31;;;;;;;5.97;2.35;;;21.00;47.20;;;;;;4942361;28;20078;-62
2022/05/13 06:48:58;;;;;;;6.70;1.85;;;21.00;47.00;;;;;;4943430;28;20643;-61
2022/05/13 06:51:24;;;;;;;6.95;1.77;;;21.00;46.90;;;;;;4925022;28;20039;-62
2022/05/13 06:53:50;;;;;;;4.97;1.25;;;21.00;46.90;;;;;;4940588;29;20518;-62
2022/05/13 06:56:15;;;;;;;5.55;1.60;;;21.00;46.90;;;;;;4942904;28;20031;-62
2022/05/13 06:58:41;;;;;;;4.03;1.50;;;21.00;46.90;;;;;;4942759;28;20523;-62
2022/05/13 07:01:06;;;;;;;4.90;1.80;;;21.00;46.90;;;;;;4940920;28;20047;-63
2022/05/13 07:03:33;;;;;;;3.00;1.33;;;20.90;46.90;;;;;;4943540;28;20055;-63
2022/05/13 07:05:58;;;;;;;4.82;1.83;;;21.00;47.00;;;;;;4944506;28;20126;-62
2022/05/13 07:08:24;;;;;;;3.60;1.40;;;20.90;47.00;;;;;;4941595;29;20051;-62
2022/05/13 07:10:50;;;;;;;4.20;1.73;;;20.90;47.00;;;;;;4944891;28;20369;-62
2022/05/13 07:13:15;;;;;;;4.55;1.40;;;20.90;47.00;;;;;;4946945;28;20042;-62
2022/05/13 07:15:43;;;;;;;2.75;1.38;;;20.90;47.10;;;;;;4945532;29;20047;-62
2022/05/13 07:18:09;;;;;;;4.45;1.70;;;20.90;47.10;;;;;;4948770;28;20054;-61
2022/05/13 07:20:35;;;;;;;3.17;1.27;;;20.90;47.10;;;;;;4950712;28;20039;-62
2022/05/13 07:23:00;;;;;;;2.95;1.35;;;20.90;47.00;;;;;;4949527;28;20058;-61
2022/05/13 07:25:26;;;;;;;4.63;1.52;;;20.90;47.00;;;;;;4948051;28;20047;-62
2022/05/13 07:27:51;;;;;;;4.53;1.30;;;20.90;47.00;;;;;;4949941;28;20035;-63
2022/05/13 07:30:17;;;;;;;3.92;1.30;;;20.90;47.00;;;;;;4948198;28;20924;-62
2022/05/13 07:32:43;;;;;;;5.68;1.80;;;20.90;47.00;;;;;;4950158;28;20166;-63
2022/05/13 07:35:09;;;;;;;4.13;1.20;;;20.90;47.10;;;;;;4949397;28;20118;-64
2022/05/13 07:37:36;;;;;;;2.70;1.40;;;20.90;47.00;;;;;;4945372;29;20058;-60
2022/05/13 07:42:46;;;;;;;3.78;1.35;;;20.90;47.40;;;;;;4947160;28;20136;-60
2022/05/13 07:45:12;;;;;;;3.88;1.20;;;21.00;47.60;;;;;;4949718;28;20807;-61
2022/05/13 07:47:39;;;;;;;6.57;1.58;;;21.00;47.80;;;;;;4949367;29;20654;-61
2022/05/13 07:50:06;;;;;;;3.33;1.17;;;21.00;47.90;;;;;;4947205;29;20035;-61
2022/05/13 07:52:32;;;;;;;3.53;1.48;;;21.00;48.00;;;;;;4948379;29;20035;-61
2022/05/13 07:54:58;;;;;;;4.13;1.25;;;21.00;48.20;;;;;;4943361;28;20055;-63
2022/05/13 07:57:23;;;;;;;3.33;1.45;;;21.10;48.30;;;;;;4939530;28;20161;-63
2022/05/13 08:02:33;;;;;;;3.08;1.30;;;21.00;48.20;;;;;;4946206;29;20165;-61
2022/05/13 08:04:59;;;;;;;5.00;1.25;;;21.10;48.30;;;;;;4945885;28;20039;-63
2022/05/13 08:07:25;;;;;;;3.47;1.02;;;21.10;48.20;;;;;;4945696;29;20071;-63
2022/05/13 08:09:50;;;;;;;4.55;1.33;;;21.10;48.20;;;;;;4946131;29;20068;-64
2022/05/13 08:12:16;;;;;;;2.97;1.13;;;21.10;48.00;;;;;;4948066;28;20052;-63
2022/05/13 08:14:42;;;;;;;2.75;1.10;;;21.10;47.90;;;;;;4949983;28;20161;-62
2022/05/13 08:17:08;;;;;;;1.92;1.35;;;21.00;47.50;;;;;;4944275;28;20058;-62
2022/05/13 08:19:33;;;;;;;3.97;1.02;;;21.00;47.30;;;;;;4945435;28;20698;-61
2022/05/13 08:21:59;;;;;;;5.90;1.45;;;21.00;47.00;;;;;;4947999;28;20077;-62
2022/05/13 08:24:25;;;;;;;4.85;1.65;;;21.00;46.70;;;;;;4944660;29;20046;-62
2022/05/13 08:26:51;;;;;;;2.53;1.20;;;21.00;46.30;;;;;;4946361;28;20181;-60
2022/05/13 08:29:16;;;;;;;4.75;1.40;;;20.90;46.10;;;;;;4947797;28;20554;-60
2022/05/13 08:31:42;;;;;;;4.30;1.30;;;20.90;46.10;;;;;;4948721;28;20487;-59
2022/05/13 08:34:09;;;;;;;5.05;1.20;;;20.90;46.20;;;;;;4948062;29;20198;-59
2022/05/13 08:36:34;;;;;;;4.72;1.35;;;20.90;46.30;;;;;;4946478;28;20078;-60
2022/05/13 08:39:00;;;;;;;4.60;1.33;;;20.90;46.30;;;;;;4944879;28;20539;-60
2022/05/13 08:42:04;;;;;;;3.10;1.30;;;20.90;46.40;;;;;;4948500;28;20043;-61
2022/05/13 08:44:30;;;;;;;1.33;0.85;;;20.90;46.60;;;;;;4944874;28;20125;-60
2022/05/13 08:47:20;;;;;;;4.47;1.17;;;20.90;46.60;;;;;;4947219;28;20384;-59
2022/05/13 08:50:07;;;;;;;1.88;1.00;;;21.00;46.50;;;;;;4946135;29;20480;-61
2022/05/13 08:53:06;;;;;;;2.40;0.95;;;20.90;46.50;;;;;;4959585;28;20150;-59
2022/05/13 08:55:40;;;;;;;3.13;0.98;;;20.90;46.60;;;;;;4959664;28;20039;-60
2022/05/13 08:58:11;;;;;;;3.85;0.93;;;21.00;46.70;;;;;;4945939;29;20043;-63
2022/05/13 09:00:39;;;;;;;;;;;20.90;46.60;;;;;;4948029;29;20047;-60
2022/05/13 09:03:40;;;;;;;2.13;1.00;;;20.90;46.50;;;;;;4947922;29;19922;-64
2022/05/13 09:06:05;;;;;;;3.60;1.10;;;20.90;46.60;;;;;;4947215;28;20603;-59
2022/05/13 09:08:33;;;;;;;3.63;0.70;;;20.90;46.70;;;;;;4947409;28;20051;-61
2022/05/13 09:11:38;;;;;;;2.13;0.90;;;20.90;46.70;;;;;;4946613;29;20057;-61
2022/05/13 09:14:21;;;;;;;2.30;0.90;;;20.90;46.80;;;;;;4947305;28;20043;-64
2022/05/13 09:17:22;;;;;;;2.63;1.00;;;20.90;46.80;;;;;;4947283;29;20119;-60
2022/05/13 09:19:57;;;;;;;1.63;0.82;;;20.90;46.80;;;;;;4943561;29;20082;-60
2022/05/13 09:22:23;;;;;;;3.85;1.00;;;20.90;46.80;;;;;;4946314;28;20551;-61
2022/05/13 09:24:48;;;;;;;2.22;1.20;;;21.00;46.80;;;;;;4947858;29;20039;-63
2022/05/13 09:27:15;;;;;;;1.42;0.85;;;20.90;46.70;;;;;;4945104;28;21007;-63
2022/05/13 09:29:45;;;;;;;2.58;0.85;;;21.00;46.70;;;;;;4945357;28;20047;-61
2022/05/13 09:32:30;;;;;;;1.60;0.90;;;21.00;46.60;;;;;;4946295;28;20043;-59
2022/05/13 09:35:11;;;;;;;2.40;0.85;;;21.00;46.60;;;;;;4945514;29;20376;-60
2022/05/13 09:37:40;;;;;;;3.08;1.13;;;21.00;46.60;;;;;;4947496;29;20047;-59
2022/05/13 09:40:10;;;;;;;3.45;0.90;;;21.00;46.60;;;;;;4945987;29;20043;-61
2022/05/13 09:42:43;;;;;;;2.60;1.17;;;21.00;46.60;;;;;;4947017;29;20407;-61
2022/05/13 09:45:22;;;;;;;4.28;1.05;;;21.00;46.60;;;;;;4947027;29;20047;-61
2022/05/13 09:48:06;;;;;;;4.00;0.98;;;21.00;46.60;;;;;;4944487;29;20126;-60
2022/05/13 09:50:59;;;;;;;3.38;0.73;;;21.00;46.60;;;;;;4946213;28;20439;-60
2022/05/13 09:53:24;;;;;;;2.15;0.90;;;21.00;46.50;;;;;;4943989;29;20051;-61
2022/05/13 09:55:53;;;;;;;3.22;1.00;;;20.90;46.60;;;;;;4943737;28;20352;-60
2022/05/13 09:58:27;;;;;;;2.78;0.80;;;21.00;46.50;;;;;;4942646;28;20395;-60
2022/05/13 10:00:58;;;;;;;5.15;1.00;;;20.90;46.60;;;;;;4943431;29;20039;-58
2022/05/13 10:03:26;;;;;;;2.15;0.88;;;21.00;46.60;;;;;;4943995;28;20070;-58
2022/05/13 10:06:03;;;;;;;3.05;1.17;;;21.00;46.50;;;;;;4941627;28;20419;-59
2022/05/13 10:08:29;;;;;;;3.38;1.17;;;20.90;46.50;;;;;;4955010;28;20043;-59
2022/05/13 10:13:57;;;;;;;3.13;1.10;;;21.00;46.30;;;;;;4944085;29;20179;-60
2022/05/13 10:16:31;;;;;;;1.77;0.90;;;21.00;46.40;;;;;;4944160;29;20078;-60
2022/05/13 10:19:16;;;;;;;4.63;1.25;;;21.00;46.40;;;;;;4940611;29;20047;-61
2022/05/13 10:21:53;;;;;;;4.82;1.48;;;21.00;46.50;;;;;;4939282;29;20039;-62
2022/05/13 10:24:31;;;;;;;3.53;1.27;;;21.00;46.60;;;;;;4941220;29;20082;-61
2022/05/13 10:27:00;;;;;;;7.13;1.40;;;21.00;46.70;;;;;;4939016;29;20443;-60
2022/05/13 10:29:45;;;;;;;3.90;1.30;;;21.00;46.80;;;;;;4957067;28;20043;-59
2022/05/13 10:32:26;;;;;;;4.80;1.30;;;21.00;46.90;;;;;;4935791;28;20035;-62
2022/05/13 10:34:55;;;;;;;7.13;2.70;;;21.00;47.10;;;;;;4940320;28;20652;-60
2022/05/13 10:37:50;;;;;;;18.63;9.00;;;21.00;47.10;;;;;;4943129;28;20051;-59
2022/05/13 10:40:18;;;;;;;13.68;8.75;;;21.00;47.40;;;;;;4943947;29;20039;-60
2022/05/13 10:43:07;;;;;;;10.32;6.38;;;21.00;47.70;;;;;;4943936;29;20050;-59
2022/05/13 10:45:35;;;;;;;9.52;5.53;;;21.10;47.90;;;;;;4961405;28;20073;-60
2022/05/13 10:48:24;;;;;;;7.78;5.38;;;21.10;47.90;;;;;;4949066;29;20098;-59
2022/05/13 10:51:00;;;;;;;8.70;5.05;;;21.10;47.90;;;;;;4945161;28;20039;-59
2022/05/13 10:53:29;;;;;;;8.05;4.95;;;21.10;48.60;;;;;;4946793;28;20086;-59
2022/05/13 10:56:13;;;;;;;7.10;4.93;;;21.10;47.90;;;;;;4960369;28;20043;-63
2022/05/13 10:59:07;;;;;;;8.15;4.53;;;21.10;48.10;;;;;;4946695;28;20772;-60
2022/05/13 11:01:54;;;;;;;7.28;4.10;;;21.10;47.90;;;;;;4944752;29;20063;-60
2022/05/13 11:04:37;;;;;;;6.45;3.75;;;21.10;47.90;;;;;;4946843;29;20066;-60
2022/05/13 11:07:17;;;;;;;6.32;3.55;;;21.10;47.90;;;;;;4948156;29;20043;-59
2022/05/13 11:09:46;;;;;;;5.68;3.35;;;21.10;47.80;;;;;;4945293;29;20039;-61
2022/05/13 11:12:34;;;;;;;7.03;3.55;;;21.10;47.70;;;;;;4945490;28;20039;-61
2022/05/13 11:15:19;;;;;;;5.68;2.92;;;21.10;47.70;;;;;;4944083;28;20644;-63
2022/05/13 11:18:30;;;;;;;5.38;2.65;;;21.10;47.50;;;;;;4942929;28;20043;-60
2022/05/13 11:20:57;;;;;;;;;;;21.10;47.50;;;;;;4949532;28;20050;-62
2022/05/13 11:23:34;;;;;;;4.03;2.40;;;21.10;47.30;;;;;;4944491;29;20303;-62
2022/05/13 11:26:21;;;;;;;6.30;2.65;;;21.00;47.40;;;;;;4945965;29;20047;-62
2022/05/13 11:29:07;;;;;;;3.03;2.25;;;21.10;47.40;;;;;;4947330;29;20542;-61
2022/05/13 11:31:36;;;;;;;5.68;2.60;;;21.00;47.50;;;;;;4946868;28;20039;-60
2022/05/13 11:34:28;;;;;;;6.30;2.30;;;21.00;47.40;;;;;;4946017;29;20073;-61
2022/05/13 11:36:59;;;;;;;5.07;2.30;;;21.00;47.30;;;;;;4948084;28;20535;-61
2022/05/13 11:39:49;;;;;;;2.50;2.05;;;21.00;47.30;;;;;;4947671;29;20078;-60
2022/05/13 11:42:24;;;;;;;3.75;1.80;;;21.10;47.20;;;;;;4947239;28;20031;-62
2022/05/13 11:45:27;;;;;;;5.22;1.77;;;21.00;47.20;;;;;;4947681;29;20482;-59
2022/05/13 11:47:56;;;;;;;2.58;1.77;;;21.00;47.10;;;;;;4946442;29;20062;-59
2022/05/13 11:50:27;;;;;;;3.38;1.80;;;21.00;47.10;;;;;;4948311;29;20093;-59
2022/05/13 11:52:54;;;;;;;4.15;1.90;;;21.00;47.10;;;;;;4949278;29;20079;-62
2022/05/13 11:55:43;;;;;;;3.22;1.60;;;21.00;47.00;;;;;;4962510;28;20051;-60
2022/05/13 11:58:40;;;;;;;3.53;1.40;;;21.00;47.00;;;;;;4945011;28;20069;-61
2022/05/13 12:01:06;;;;;;;2.95;1.60;;;21.00;47.10;;;;;;4948393;29;20461;-62
2022/05/13 12:03:32;;;;;;;3.65;1.75;;;21.00;47.10;;;;;;4947322;29;20135;-60
2022/05/13 12:06:02;;;;;;;3.90;1.80;;;21.00;47.00;;;;;;4945973;28;20124;-59
2022/05/13 12:08:31;;;;;;;10.80;1.63;;;21.00;47.00;;;;;;4947450;28;20078;-60
2022/05/13 12:11:02;;;;;;;5.38;1.83;;;21.00;47.00;;;;;;4947076;28;20054;-60
2022/05/13 12:14:02;;;;;;;2.83;1.23;;;21.00;47.00;;;;;;4941434;28;20047;-61
2022/05/13 12:16:45;;;;;;;4.68;1.70;;;21.00;47.00;;;;;;4947218;28;20043;-61
2022/05/13 12:19:29;;;;;;;2.25;1.50;;;21.00;47.00;;;;;;4961100;28;20127;-60
2022/05/13 12:22:23;;;;;;;3.47;1.45;;;21.00;46.90;;;;;;4945760;28;20062;-60
2022/05/13 12:24:57;;;;;;;3.42;1.45;;;21.00;46.90;;;;;;4947078;28;20074;-60
2022/05/13 12:28:01;;;;;;;4.40;1.40;;;21.00;46.80;;;;;;4940635;28;20502;-61
2022/05/13 12:30:36;;;;;;;8.00;1.90;;;21.00;46.70;;;;;;4948533;29;20129;-61
2022/05/13 12:33:20;;;;;;;9.60;1.60;;;20.90;46.80;;;;;;4941276;28;20054;-62
2022/05/13 12:39:03;;;;;;;6.03;1.70;;;20.90;47.00;;;;;;4961657;28;20109;-60
2022/05/13 12:41:46;;;;;;;8.93;1.83;;;20.90;46.70;;;;;;4949471;28;20090;-60
2022/05/13 12:44:30;;;;;;;6.53;1.60;;;20.90;46.60;;;;;;4948065;29;20098;-59
2022/05/13 12:47:17;;;;;;;7.57;1.77;;;20.90;46.60;;;;;;4947678;28;20050;-61
2022/05/13 12:49:48;;;;;;;3.20;1.27;;;21.00;46.50;;;;;;4948014;29;20039;-60
2022/05/13 12:52:21;;;;;;;5.07;1.90;;;20.90;46.60;;;;;;4944577;28;20163;-64
2022/05/13 12:54:56;;;;;;;5.15;2.05;;;20.90;46.60;;;;;;4937503;28;20046;-62
2022/05/13 12:57:30;;;;;;;6.22;2.25;;;20.90;46.50;;;;;;4946846;29;20093;-62
2022/05/13 12:59:58;;;;;;;6.03;2.25;;;20.90;46.60;;;;;;4963228;28;20152;-60
2022/05/13 13:02:28;;;;;;;4.13;1.88;;;20.90;46.50;;;;;;4942378;29;20047;-61
2022/05/13 13:04:58;;;;;;;7.25;2.60;;;21.00;46.50;;;;;;4948152;28;20043;-63
2022/05/13 13:07:28;;;;;;;8.00;2.80;;;20.90;46.40;;;;;;4944382;28;20043;-60
2022/05/13 13:09:55;;;;;;;8.40;2.33;;;21.00;46.50;;;;;;4946375;29;20038;-62
2022/05/13 13:12:31;;;;;;;7.35;2.38;;;20.90;46.50;;;;;;4945821;29;20090;-60
2022/05/13 13:15:03;;;;;;;7.30;2.95;;;20.90;46.40;;;;;;4947187;29;20142;-64
2022/05/13 13:17:42;;;;;;;9.32;2.90;;;21.00;46.50;;;;;;4942745;28;20534;-60
2022/05/13 13:20:11;;;;;;;6.80;2.95;;;21.00;46.40;;;;;;4946541;28;20562;-61
2022/05/13 13:22:47;;;;;;;4.65;2.28;;;21.00;46.40;;;;;;4947026;29;20065;-59
2022/05/13 13:25:27;;;;;;;7.20;2.47;;;21.00;46.30;;;;;;4946172;28;20130;-62
2022/05/13 13:27:58;;;;;;;6.93;2.88;;;21.00;46.30;;;;;;4946734;28;20166;-60
2022/05/13 13:30:25;;;;;;;8.07;2.60;;;21.00;46.40;;;;;;4943523;29;20715;-59
2022/05/13 13:32:51;;;;;;;6.50;2.33;;;21.00;46.40;;;;;;4942927;28;20122;-61